Time;durP1;ratioP1;P1;durP2;ratioP2;P2;SDS_P1;SDS_P2;PMS_P1;PMS_P2;Temp;Humidity;BMP_temperature;BMP_pressure;BME280_temperature;BME280_humidity;BME280_pressure;Samples;Min_cycle;Max_cycle;Signal;HPM_P1;HPM_P2
2022/10/02 00:02:13;;;;;;;10.60;3.40;;;;;;;11.86;100.00;100493.91;5105606;28;20162;-70
2022/10/02 00:05:05;;;;;;;8.77;2.75;;;;;;;11.68;100.00;100474.44;5093401;28;20047;-69
2022/10/02 00:07:51;;;;;;;6.25;2.45;;;;;;;11.78;100.00;100496.09;5105952;28;20055;-70
2022/10/02 00:10:40;;;;;;;8.65;3.00;;;;;;;11.79;100.00;100503.13;5102177;28;20054;-69
2022/10/02 00:13:14;;;;;;;10.77;2.80;;;;;;;11.80;100.00;100494.25;5111201;28;20067;-69
2022/10/02 00:15:42;;;;;;;8.93;2.53;;;;;;;11.70;100.00;100484.97;5111129;28;20058;-73
2022/10/02 00:18:13;;;;;;;14.75;3.53;;;;;;;11.79;100.00;100493.38;5111311;28;20079;-69
2022/10/02 00:21:05;;;;;;;13.55;3.95;;;;;;;11.91;100.00;100510.47;5111788;28;20052;-70
2022/10/02 00:23:57;;;;;;;11.52;3.20;;;;;;;11.95;100.00;100512.03;5107073;28;20135;-69
2022/10/02 00:26:33;;;;;;;13.38;3.50;;;;;;;11.98;100.00;100514.50;5096354;28;20488;-72
2022/10/02 00:29:31;;;;;;;19.13;4.10;;;;;;;11.98;100.00;100511.84;5109978;28;20048;-71
2022/10/02 00:32:21;;;;;;;10.35;2.85;;;;;;;12.02;100.00;100509.91;5111405;28;20163;-70
2022/10/02 00:34:59;;;;;;;;;;;;;;;12.05;100.00;100521.25;5111684;28;20069;-71
2022/10/02 00:37:56;;;;;;;8.27;2.67;;;;;;;12.03;100.00;100517.81;5110918;28;19919;-70
2022/10/02 00:40:46;;;;;;;9.50;2.70;;;;;;;12.03;100.00;100506.31;5107505;28;20051;-70
2022/10/02 00:43:30;;;;;;;12.60;3.53;;;;;;;11.90;100.00;100496.34;5112197;28;20043;-70
2022/10/02 00:46:38;;;;;;;14.93;3.38;;;;;;;12.05;100.00;100515.94;5104998;28;20045;-71
2022/10/02 00:49:14;;;;;;;15.75;3.35;;;;;;;12.00;100.00;100514.44;5031090;28;20065;-71
2022/10/02 00:52:02;;;;;;;11.93;2.80;;;;;;;12.11;100.00;100526.25;5102094;28;20052;-69
2022/10/02 00:55:13;;;;;;;11.43;3.28;;;;;;;12.10;100.00;100513.91;5110926;28;20052;-70
2022/10/02 00:57:39;;;;;;;10.23;2.65;;;;;;;12.12;100.00;100500.56;5089571;28;20163;-71
2022/10/02 01:00:14;;;;;;;12.20;3.25;;;;;;;12.14;100.00;100514.59;5109422;28;20073;-70
2022/10/02 01:03:22;;;;;;;12.82;3.10;;;;;;;12.14;100.00;100507.47;5104090;28;20067;-70
2022/10/02 01:05:49;;;;;;;11.57;3.28;;;;;;;12.07;100.00;100486.66;5107081;28;20134;-71
2022/10/02 01:08:16;;;;;;;13.57;3.97;;;;;;;12.18;100.00;100498.44;5109884;28;20044;-69
2022/10/02 01:10:44;;;;;;;14.65;3.47;;;;;;;12.21;100.00;100492.97;5110139;28;20046;-71
2022/10/02 01:13:11;;;;;;;8.52;2.85;;;;;;;12.23;100.00;100496.41;5106117;28;20046;-71
2022/10/02 01:15:43;;;;;;;13.88;3.25;;;;;;;12.24;100.00;100492.81;5110035;28;20452;-69
2022/10/02 01:18:12;;;;;;;11.15;2.78;;;;;;;12.24;100.00;100489.28;5104154;28;20183;-70
2022/10/02 01:20:44;;;;;;;15.00;2.70;;;;;;;12.29;100.00;100489.91;5105499;28;20139;-69
2022/10/02 01:23:40;;;;;;;12.88;3.13;;;;;;;12.29;100.00;100479.28;5109902;28;20067;-71
2022/10/02 01:26:06;;;;;;;14.75;2.95;;;;;;;12.23;100.00;100469.00;5108960;28;20040;-71
2022/10/02 01:28:33;;;;;;;12.85;3.20;;;;;;;12.32;100.00;100496.84;5109835;28;20221;-69
2022/10/02 01:31:07;;;;;;;16.30;3.10;;;;;;;12.36;100.00;100503.72;5110056;28;20135;-70
2022/10/02 01:33:35;;;;;;;15.52;4.18;;;;;;;12.42;100.00;100506.06;5109921;28;20048;-69
2022/10/02 01:36:02;;;;;;;12.88;3.63;;;;;;;12.48;100.00;100516.34;5107113;28;20132;-70
2022/10/02 01:38:30;;;;;;;17.10;3.75;;;;;;;12.53;100.00;100509.84;5109613;28;20764;-71
2022/10/02 01:40:56;;;;;;;14.77;3.22;;;;;;;12.54;100.00;100510.72;5110035;28;20048;-70
2022/10/02 01:43:33;;;;;;;15.43;3.83;;;;;;;12.58;100.00;100514.94;5109911;28;20123;-70
2022/10/02 01:46:14;;;;;;;13.82;3.10;;;;;;;12.61;100.00;100517.41;5109577;28;20051;-74
2022/10/02 01:48:49;;;;;;;13.77;3.22;;;;;;;12.59;100.00;100504.19;5110192;28;20058;-70
2022/10/02 01:51:43;;;;;;;14.02;3.20;;;;;;;12.56;100.00;100515.00;5110108;28;20048;-71
2022/10/02 01:54:38;;;;;;;12.35;3.17;;;;;;;12.55;100.00;100513.31;5106445;28;20059;-71
2022/10/02 01:57:38;;;;;;;11.95;3.03;;;;;;;12.52;100.00;100508.16;5108413;28;20640;-73
2022/10/02 02:00:09;;;;;;;11.30;3.20;;;;;;;12.54;100.00;100518.69;5109348;28;20847;-70
2022/10/02 02:02:39;;;;;;;13.55;3.40;;;;;;;12.55;100.00;100520.41;5109889;28;20067;-71
2022/10/02 02:05:16;;;;;;;18.47;3.80;;;;;;;12.56;100.00;100517.69;5110478;28;20051;-70
2022/10/02 02:07:59;;;;;;;14.73;3.42;;;;;;;12.54;100.00;100524.00;5109502;28;20056;-71
2022/10/02 02:10:34;;;;;;;14.68;3.42;;;;;;;12.48;100.00;100521.66;5100096;28;20062;-70
2022/10/02 02:13:41;;;;;;;16.88;3.75;;;;;;;12.49;100.00;100521.56;5107544;28;20540;-70
2022/10/02 02:16:20;;;;;;;8.32;2.92;;;;;;;12.36;100.00;100507.22;5055032;28;20057;-70
2022/10/02 02:19:02;;;;;;;13.38;3.00;;;;;;;12.49;100.00;100524.22;5102379;28;20064;-69
2022/10/02 02:21:33;;;;;;;14.65;3.35;;;;;;;12.48;100.00;100522.50;5109026;28;20063;-70
2022/10/02 02:24:03;;;;;;;15.32;3.40;;;;;;;12.48;100.00;100524.31;5108469;28;20050;-70
2022/10/02 02:26:31;;;;;;;15.38;3.15;;;;;;;12.47;100.00;100522.59;5108850;28;20054;-70
2022/10/02 02:29:01;;;;;;;12.75;3.35;;;;;;;12.49;100.00;100523.38;5099785;28;20109;-71
2022/10/02 02:31:36;;;;;;;13.05;2.70;;;;;;;12.47;100.00;100518.13;5108309;28;20075;-70
2022/10/02 02:34:10;;;;;;;14.45;2.88;;;;;;;12.48;100.00;100509.22;5108634;28;20127;-71
2022/10/02 02:36:43;;;;;;;6.70;2.72;;;;;;;12.51;100.00;100508.22;5105519;28;20074;-71
2022/10/02 02:39:14;;;;;;;9.73;3.33;;;;;;;12.50;100.00;100509.16;5108158;28;20090;-71
2022/10/02 02:41:50;;;;;;;13.57;2.75;;;;;;;12.50;100.00;100514.47;5108651;28;20055;-72
2022/10/02 02:44:26;;;;;;;15.25;2.75;;;;;;;12.46;100.00;100519.06;5105772;28;20058;-71
2022/10/02 02:47:18;;;;;;;14.05;3.15;;;;;;;12.46;100.00;100528.84;5096716;28;20559;-70
2022/10/02 02:49:59;;;;;;;13.38;3.17;;;;;;;12.45;100.00;100530.63;5106955;28;20495;-69
2022/10/02 02:52:30;;;;;;;15.30;3.22;;;;;;;12.46;100.00;100526.19;5104390;28;20522;-70
2022/10/02 02:55:09;;;;;;;11.70;2.78;;;;;;;12.37;100.00;100513.41;5108178;28;20142;-70
2022/10/02 02:58:06;;;;;;;15.77;3.83;;;;;;;12.49;100.00;100534.00;5108103;28;20043;-71
2022/10/02 03:00:32;;;;;;;14.13;3.58;;;;;;;12.46;100.00;100528.84;5096163;28;20075;-71
2022/10/02 03:02:59;;;;;;;10.90;2.58;;;;;;;12.42;100.00;100528.16;5102289;28;20496;-71
2022/10/02 03:05:27;;;;;;;13.60;2.80;;;;;;;12.45;100.00;100530.63;5109165;28;20185;-70
2022/10/02 03:07:58;;;;;;;10.32;2.50;;;;;;;12.45;100.00;100533.28;5106903;28;20641;-72
2022/10/02 03:10:51;;;;;;;13.60;2.83;;;;;;;12.47;100.00;100539.38;5109948;28;20050;-73
2022/10/02 03:13:40;;;;;;;6.80;2.40;;;;;;;12.44;100.00;100522.75;5109863;28;20138;-70
2022/10/02 03:16:36;;;;;;;12.30;2.33;;;;;;;12.47;100.00;100531.41;5109314;28;20043;-71
2022/10/02 03:19:19;;;;;;;12.38;2.60;;;;;;;12.49;100.00;100534.00;5109606;28;20413;-71
2022/10/02 03:21:54;;;;;;;8.32;2.22;;;;;;;12.48;100.00;100524.31;5102166;28;20044;-70
2022/10/02 03:24:40;;;;;;;16.00;3.15;;;;;;;12.47;100.00;100506.66;5109608;28;20082;-70
2022/10/02 03:27:28;;;;;;;14.98;2.53;;;;;;;12.56;100.00;100514.16;5108771;28;20559;-69
2022/10/02 03:30:12;;;;;;;8.40;2.35;;;;;;;12.59;100.00;100509.50;5109919;28;20472;-70
2022/10/02 03:32:42;;;;;;;13.20;2.22;;;;;;;12.58;100.00;100509.63;5109405;28;20043;-71
2022/10/02 03:35:11;;;;;;;15.63;2.67;;;;;;;12.51;100.00;100484.31;5109197;28;20130;-69
2022/10/02 03:37:43;;;;;;;12.98;2.80;;;;;;;12.62;100.00;100501.38;5105045;28;20048;-70
2022/10/02 03:40:10;;;;;;;11.20;2.58;;;;;;;12.68;100.00;100496.69;5109130;28;20436;-73
2022/10/02 03:42:36;;;;;;;9.98;2.42;;;;;;;12.68;100.00;100494.91;5110952;28;20407;-71
2022/10/02 03:45:03;;;;;;;15.25;2.78;;;;;;;12.70;100.00;100508.97;5113599;28;20101;-70
2022/10/02 03:47:30;;;;;;;12.73;2.80;;;;;;;12.68;100.00;100518.81;5113199;28;20039;-70
2022/10/02 03:49:57;;;;;;;11.80;2.80;;;;;;;12.68;100.00;100521.47;5113722;28;20050;-70
2022/10/02 03:52:24;;;;;;;15.65;2.80;;;;;;;12.67;100.00;100525.06;5113480;28;20047;-71
2022/10/02 03:55:00;;;;;;;10.98;2.67;;;;;;;12.68;100.00;100534.75;5111777;28;20127;-73
2022/10/02 03:57:29;;;;;;;15.32;2.47;;;;;;;12.68;100.00;100536.53;5113476;28;20048;-72
2022/10/02 04:00:11;;;;;;;16.60;3.05;;;;;;;12.67;100.00;100530.38;5112110;28;20063;-72
2022/10/02 04:02:56;;;;;;;13.30;2.58;;;;;;;12.74;100.00;100538.88;5110704;28;20457;-75
2022/10/02 04:05:27;;;;;;;10.07;2.47;;;;;;;12.74;100.00;100542.41;5106882;28;20040;-72
2022/10/02 04:07:58;;;;;;;14.50;3.15;;;;;;;12.62;100.00;100525.28;5111045;28;20047;-76
2022/10/02 04:10:39;;;;;;;13.75;2.47;;;;;;;12.61;100.00;100509.44;5112083;28;20075;-70
2022/10/02 04:13:11;;;;;;;;;;;;;;;12.79;100.00;100544.78;5113659;28;20055;-71
2022/10/02 04:15:44;;;;;;;9.40;2.50;;;;;;;12.83;100.00;100541.91;5109401;28;19942;-70
2022/10/02 04:18:19;;;;;;;12.80;2.58;;;;;;;12.86;100.00;100535.56;5105148;28;20056;-71
2022/10/02 04:20:57;;;;;;;11.45;2.95;;;;;;;12.91;100.00;100539.66;5088474;28;20513;-70
2022/10/02 04:23:38;;;;;;;10.73;2.75;;;;;;;12.95;100.00;100543.03;5112957;28;20047;-72
2022/10/02 04:26:31;;;;;;;10.90;2.60;;;;;;;12.96;100.00;100542.09;5109998;28;20051;-70
2022/10/02 04:29:12;;;;;;;13.45;3.25;;;;;;;12.97;100.00;100539.34;5110530;28;20091;-71
2022/10/02 04:31:41;;;;;;;9.60;2.90;;;;;;;13.00;100.00;100533.88;5112731;28;20465;-71
2022/10/02 04:34:12;;;;;;;14.15;3.10;;;;;;;12.98;100.00;100533.09;5112802;28;20043;-74
2022/10/02 04:36:46;;;;;;;12.93;2.67;;;;;;;12.98;100.00;100533.09;5112427;28;20044;-70
2022/10/02 04:39:42;;;;;;;11.20;2.72;;;;;;;12.86;100.00;100519.63;5112332;28;20048;-72
2022/10/02 04:42:50;;;;;;;12.57;2.95;;;;;;;13.00;100.00;100548.97;5104440;28;20039;-70
2022/10/02 04:45:42;;;;;;;11.57;2.90;;;;;;;13.02;100.00;100540.91;5104126;28;20048;-71
2022/10/02 04:48:27;;;;;;;9.57;3.03;;;;;;;13.03;100.00;100542.63;5112351;28;20097;-71
2022/10/02 04:51:28;;;;;;;12.88;3.35;;;;;;;13.09;100.00;100537.81;5112344;28;20495;-71
2022/10/02 04:54:13;;;;;;;15.70;3.45;;;;;;;13.10;100.00;100541.31;5111255;28;20165;-71
2022/10/02 04:57:11;;;;;;;13.10;3.35;;;;;;;13.09;100.00;100543.13;5108535;28;20058;-72
2022/10/02 04:59:53;;;;;;;10.25;3.42;;;;;;;13.09;100.00;100537.81;5108090;28;20047;-71
2022/10/02 05:02:26;;;;;;;9.65;3.13;;;;;;;13.11;100.00;100541.25;5110417;28;20047;-72
2022/10/02 05:05:13;;;;;;;9.95;3.10;;;;;;;13.13;100.00;100541.16;5112772;28;20625;-72
2022/10/02 05:07:40;;;;;;;13.10;3.50;;;;;;;13.12;100.00;100531.47;5112213;28;20052;-72
2022/10/02 05:10:30;;;;;;;13.55;3.70;;;;;;;13.10;100.00;100541.31;5111822;28;20039;-73
2022/10/02 05:13:30;;;;;;;12.80;3.22;;;;;;;13.09;100.00;100536.94;5109941;28;20055;-71
2022/10/02 05:15:57;;;;;;;12.70;3.65;;;;;;;13.07;100.00;100534.38;5109864;28;20039;-71
2022/10/02 05:18:37;;;;;;;11.75;3.53;;;;;;;13.03;100.00;100524.00;5108235;28;20073;-71
2022/10/02 05:21:19;;;;;;;11.43;3.72;;;;;;;13.08;100.00;100535.22;5111704;28;20186;-70
2022/10/02 05:24:08;;;;;;;11.70;3.53;;;;;;;13.05;100.00;100535.44;5111693;28;20420;-72
2022/10/02 05:26:53;;;;;;;12.85;3.90;;;;;;;13.03;100.00;100537.31;5111478;28;20577;-70
2022/10/02 05:29:47;;;;;;;13.50;4.18;;;;;;;13.02;100.00;100539.09;5111548;28;20120;-73
2022/10/02 05:32:55;;;;;;;10.30;3.45;;;;;;;13.00;100.00;100539.19;5111950;28;20145;-70
2022/10/02 05:35:36;;;;;;;12.60;4.00;;;;;;;12.87;100.00;100505.38;5063069;28;20059;-71
2022/10/02 05:38:18;;;;;;;;;;;;;;;13.02;100.00;100530.28;5112057;28;20534;-72
2022/10/02 05:41:17;;;;;;;11.05;3.42;;;;;;;12.86;100.00;100517.81;5111074;28;19924;-71
2022/10/02 05:44:18;;;;;;;11.95;4.50;;;;;;;12.95;100.00;100538.56;5107923;28;20055;-72
2022/10/02 05:46:51;;;;;;;16.00;4.82;;;;;;;12.95;100.00;100557.19;5093079;28;20460;-71
2022/10/02 05:49:25;;;;;;;12.07;4.13;;;;;;;12.94;100.00;100563.44;5108616;28;20051;-70
2022/10/02 05:52:21;;;;;;;12.88;4.30;;;;;;;12.95;100.00;100557.19;5111514;28;20055;-74
2022/10/02 05:54:59;;;;;;;17.27;4.63;;;;;;;12.97;100.00;100549.13;5110835;28;20433;-73
2022/10/02 05:57:35;;;;;;;11.73;4.07;;;;;;;12.88;100.00;100539.84;5111330;28;20047;-74
2022/10/02 06:00:43;;;;;;;10.90;4.40;;;;;;;13.02;100.00;100562.16;5107253;28;20453;-72
2022/10/02 06:03:24;;;;;;;16.75;4.85;;;;;;;12.89;100.00;100532.75;5102682;28;20051;-71
2022/10/02 06:06:00;;;;;;;13.20;4.72;;;;;;;12.93;100.00;100540.44;5108867;28;20126;-73
2022/10/02 06:09:00;;;;;;;14.45;4.75;;;;;;;13.12;100.00;100563.38;5110764;28;20055;-71
2022/10/02 06:11:40;;;;;;;13.90;4.70;;;;;;;12.99;100.00;100537.47;5105233;28;20152;-73
2022/10/02 06:14:18;;;;;;;12.52;4.30;;;;;;;13.16;100.00;100559.66;5107540;28;20036;-71
2022/10/02 06:17:07;;;;;;;13.48;4.55;;;;;;;13.13;100.00;100550.00;5088589;28;20364;-71
2022/10/02 06:20:03;;;;;;;12.40;4.43;;;;;;;13.14;100.00;100541.09;5105323;28;20095;-71
2022/10/02 06:22:39;;;;;;;15.75;5.20;;;;;;;13.16;100.00;100541.91;5086318;28;20523;-72
2022/10/02 06:25:25;;;;;;;16.90;5.20;;;;;;;13.13;100.00;100539.38;5109804;28;20060;-71
2022/10/02 06:28:10;;;;;;;16.00;4.57;;;;;;;13.14;100.00;100546.41;5110208;28;20079;-74
2022/10/02 06:30:43;;;;;;;15.50;4.72;;;;;;;13.12;100.00;100547.41;5110568;28;20039;-71
2022/10/02 06:33:21;;;;;;;17.38;4.53;;;;;;;13.13;100.00;100554.47;5110323;28;20462;-73
2022/10/02 06:36:15;;;;;;;14.55;5.50;;;;;;;13.10;100.00;100554.63;5110107;28;20130;-71
2022/10/02 06:39:09;;;;;;;13.10;5.10;;;;;;;13.09;100.00;100552.91;5106050;28;20044;-71
2022/10/02 06:42:04;;;;;;;16.23;5.78;;;;;;;13.08;100.00;100554.69;5107964;28;20047;-72
2022/10/02 06:44:55;;;;;;;16.95;5.75;;;;;;;13.05;100.00;100551.38;5109931;28;20071;-70
2022/10/02 06:47:47;;;;;;;18.65;5.97;;;;;;;13.14;100.00;100557.03;5103622;28;20058;-71
2022/10/02 06:50:39;;;;;;;17.17;6.72;;;;;;;13.10;100.00;100558.13;5102405;28;20536;-71
2022/10/02 06:53:12;;;;;;;15.25;5.20;;;;;;;13.11;100.00;100567.84;5110735;28;20040;-73
2022/10/02 06:56:11;;;;;;;14.85;5.63;;;;;;;13.12;100.00;100566.03;5109538;28;20122;-71
2022/10/02 06:58:51;;;;;;;15.50;5.28;;;;;;;13.14;100.00;100570.31;5090846;28;20487;-73
2022/10/02 07:01:52;;;;;;;12.82;5.40;;;;;;;13.16;100.00;100578.25;5109634;28;20044;-72
2022/10/02 07:04:57;;;;;;;12.48;4.60;;;;;;;13.15;100.00;100574.75;5108860;28;20120;-75
2022/10/02 07:07:51;;;;;;;13.27;5.10;;;;;;;13.13;100.00;100576.59;5056317;28;20051;-71
2022/10/02 07:10:28;;;;;;;12.50;4.93;;;;;;;13.12;100.00;100576.66;5110179;28;20058;-74
2022/10/02 07:13:13;;;;;;;11.43;4.95;;;;;;;13.09;100.00;100580.34;5106461;28;20130;-73
2022/10/02 07:16:05;;;;;;;11.52;3.97;;;;;;;13.06;100.00;100577.88;5109191;28;20406;-71
2022/10/02 07:18:48;;;;;;;15.50;4.35;;;;;;;13.03;100.00;100578.03;5103546;28;20047;-70
2022/10/02 07:21:29;;;;;;;13.63;4.43;;;;;;;12.88;100.00;100545.19;5110476;28;20052;-73
2022/10/02 07:24:00;;;;;;;9.95;4.43;;;;;;;13.02;100.00;100567.50;5110604;28;20122;-71
2022/10/02 07:26:37;;;;;;;11.82;3.80;;;;;;;13.04;100.00;100571.78;5110698;28;20139;-73
2022/10/02 07:29:39;;;;;;;9.55;4.18;;;;;;;13.02;100.00;100573.66;5107411;28;20131;-73
2022/10/02 07:32:10;;;;;;;13.02;4.35;;;;;;;13.04;100.00;100579.75;5076932;28;20048;-71
2022/10/02 07:34:50;;;;;;;;;;;;;;;13.02;100.00;100578.97;5111032;28;20087;-76
2022/10/02 07:37:34;;;;;;;12.32;4.65;;;;;;;12.96;100.00;100573.97;5102666;28;19930;-75
2022/10/02 07:40:38;;;;;;;13.52;4.50;;;;;;;12.95;100.00;100588.22;5110274;28;20051;-73
2022/10/02 07:43:05;;;;;;;14.88;4.60;;;;;;;12.94;100.00;100584.69;5110371;28;20051;-74
2022/10/02 07:45:40;;;;;;;10.35;4.25;;;;;;;12.94;100.00;100584.69;5110632;28;20047;-78
2022/10/02 07:48:13;;;;;;;15.63;4.60;;;;;;;12.92;100.00;100581.25;5109303;28;20446;-75
2022/10/02 07:52:01;;;;;;;11.00;4.25;;;;;;;12.96;100.00;100587.28;5110155;28;20582;-74
2022/10/02 07:54:11;;;;;;;10.60;4.35;;;;;;;12.87;100.00;100588.63;5087369;28;20044;-73
2022/10/02 07:56:38;;;;;;;13.82;4.97;;;;;;;12.86;100.00;100584.25;5110015;28;20221;-74
2022/10/02 07:59:14;;;;;;;9.82;4.05;;;;;;;12.87;100.00;100588.63;5107117;28;20058;-74
2022/10/02 08:01:43;;;;;;;10.48;4.15;;;;;;;12.85;100.00;100592.31;5108972;28;20111;-76
2022/10/02 08:04:15;;;;;;;10.95;4.47;;;;;;;12.85;100.00;100601.16;5109545;28;20400;-74
2022/10/02 08:06:43;;;;;;;9.68;4.20;;;;;;;12.92;100.00;100594.53;5109908;28;20051;-74
2022/10/02 08:09:30;;;;;;;11.63;4.43;;;;;;;12.95;100.00;100589.06;5107403;28;20548;-73
2022/10/02 08:12:39;;;;;;;10.75;4.05;;;;;;;12.95;100.00;100594.38;5109344;28;20143;-74
2022/10/02 08:15:14;;;;;;;11.73;3.70;;;;;;;12.91;100.00;100598.16;5107269;28;20073;-75
2022/10/02 08:17:48;;;;;;;13.07;4.57;;;;;;;12.87;100.00;100603.72;5099545;28;20464;-74
2022/10/02 08:20:15;;;;;;;8.68;4.13;;;;;;;12.89;100.00;100608.03;5105229;28;20048;-73
2022/10/02 08:22:46;;;;;;;13.75;4.18;;;;;;;12.85;100.00;100598.50;5109645;28;20046;-75
2022/10/02 08:25:25;;;;;;;9.63;3.83;;;;;;;12.86;100.00;100610.84;5109515;28;20138;-74
2022/10/02 08:28:01;;;;;;;9.48;3.65;;;;;;;12.91;100.00;100598.16;5109755;28;20908;-76
2022/10/02 08:30:28;;;;;;;7.72;3.30;;;;;;;12.95;100.00;100598.84;5107648;28;20445;-77
2022/10/02 08:32:55;;;;;;;8.57;3.40;;;;;;;13.00;100.00;100591.50;5112963;28;20083;-75
2022/10/02 08:35:34;;;;;;;12.10;4.03;;;;;;;13.10;100.00;100592.69;5112038;28;20094;-75
2022/10/02 08:38:15;;;;;;;9.00;3.58;;;;;;;13.00;100.00;100575.53;5112733;28;20051;-75
2022/10/02 08:41:10;;;;;;;8.93;3.05;;;;;;;13.12;100.00;100592.63;5112570;28;20062;-76
2022/10/02 08:43:37;;;;;;;9.32;3.33;;;;;;;13.01;100.00;100566.63;5086776;28;20059;-77
2022/10/02 08:46:16;;;;;;;10.85;3.72;;;;;;;13.05;100.00;100578.81;5112719;28;20039;-74
2022/10/02 08:49:05;;;;;;;10.77;3.63;;;;;;;13.14;100.00;100596.91;5113080;28;20440;-74
2022/10/02 08:51:46;;;;;;;6.97;3.30;;;;;;;13.16;100.00;100600.41;5111990;28;20043;-74
2022/10/02 08:54:45;;;;;;;8.73;2.88;;;;;;;13.18;100.00;100605.63;5108642;28;20065;-77
2022/10/02 08:57:31;;;;;;;8.00;3.17;;;;;;;13.11;100.00;100604.19;5112635;28;20048;-74
2022/10/02 09:00:36;;;;;;;9.45;4.10;;;;;;;13.04;100.00;100608.16;5090583;28;20048;-70
2022/10/02 09:03:05;;;;;;;8.00;3.75;;;;;;;12.99;100.00;100611.91;5028359;28;20037;-76
2022/10/02 09:06:20;;;;;;;7.57;3.55;;;;;;;12.96;100.00;100614.72;5028577;28;20452;-75
2022/10/02 09:09:18;;;;;;;10.13;3.92;;;;;;;12.92;100.00;100607.84;5078966;28;20432;-73
2022/10/02 09:12:12;;;;;;;11.63;4.30;;;;;;;13.02;100.00;100615.34;5112070;28;20040;-73
2022/10/02 09:15:04;;;;;;;9.00;4.45;;;;;;;13.13;100.00;100603.19;5107969;28;20079;-73
2022/10/02 09:17:46;;;;;;;5.75;3.80;;;;;;;13.23;100.00;100607.06;5080189;28;20126;-73
2022/10/02 09:20:34;;;;;;;5.57;3.38;;;;;;;13.36;100.00;100603.78;5091266;28;20047;-75
2022/10/02 09:23:04;;;;;;;8.35;3.03;;;;;;;13.43;100.00;100605.13;5110906;28;20147;-74
2022/10/02 09:25:44;;;;;;;5.85;3.10;;;;;;;13.42;100.00;100600.75;5112157;28;20158;-76
2022/10/02 09:28:35;;;;;;;7.60;3.07;;;;;;;13.41;100.00;100599.03;5106696;28;20046;-72
2022/10/02 09:31:32;;;;;;;6.07;3.00;;;;;;;13.39;100.00;100609.75;5111540;28;20526;-73
2022/10/02 09:34:34;;;;;;;5.60;3.25;;;;;;;13.28;100.00;100607.69;5110342;28;20043;-73
2022/10/02 09:37:31;;;;;;;6.53;2.92;;;;;;;13.05;100.00;100578.81;5080691;28;20075;-75
2022/10/02 09:40:17;;;;;;;5.88;3.00;;;;;;;13.22;100.00;100605.34;5109816;28;20060;-76
2022/10/02 09:43:08;;;;;;;6.50;2.58;;;;;;;13.29;100.00;100597.91;5113088;28;20080;-73
2022/10/02 09:46:02;;;;;;;6.25;2.67;;;;;;;13.30;100.00;100608.47;5107452;28;20067;-74
2022/10/02 09:48:44;;;;;;;4.88;3.15;;;;;;;13.08;100.00;100577.78;5106410;28;20051;-74
2022/10/02 09:51:32;;;;;;;5.40;3.33;;;;;;;13.23;100.00;100606.22;5108135;28;20047;-74
2022/10/02 09:54:01;;;;;;;3.80;2.97;;;;;;;13.26;100.00;100598.94;5111659;28;20090;-74
2022/10/02 09:56:47;;;;;;;4.65;3.20;;;;;;;13.32;100.00;100603.06;5111224;28;20047;-71
2022/10/02 09:59:44;;;;;;;5.30;3.08;;;;;;;13.33;100.00;100596.81;5108040;28;20044;-75
2022/10/02 10:02:35;;;;;;;6.65;2.58;;;;;;;13.42;100.00;100590.97;5104925;28;20078;-75
2022/10/02 10:05:27;;;;;;;6.07;3.38;;;;;;;13.26;100.00;100559.03;5111547;28;20063;-73
2022/10/02 10:08:10;;;;;;;6.07;3.50;;;;;;;13.41;100.00;100596.38;5109226;28;20040;-73
2022/10/02 10:11:00;;;;;;;5.43;3.30;;;;;;;13.32;100.00;100574.69;5105328;28;20054;-73
2022/10/02 10:13:41;;;;;;;5.38;3.20;;;;;;;13.53;100.00;100587.72;5111734;28;20070;-73
2022/10/02 10:16:28;;;;;;;3.97;3.03;;;;;;;13.50;100.00;100583.44;5110659;28;20054;-76
2022/10/02 10:19:02;;;;;;;6.00;2.90;;;;;;;13.50;100.00;100585.25;5112331;28;20039;-76
2022/10/02 10:22:02;;;;;;;6.68;2.88;;;;;;;13.58;100.00;100583.00;5111467;28;20079;-75
2022/10/02 10:24:32;;;;;;;;;;;;;;;13.60;100.00;100584.63;5106928;28;20134;-73
2022/10/02 10:27:37;;;;;;;7.50;3.50;;;;;;;13.58;100.00;100575.00;5111456;28;20535;-73
2022/10/02 10:30:22;;;;;;;5.43;3.40;;;;;;;13.61;100.00;100575.69;5112538;28;20134;-74
2022/10/02 10:33:23;;;;;;;4.65;3.30;;;;;;;13.56;100.00;100588.41;5112985;28;20167;-73
2022/10/02 10:39:40;;;;;;;4.38;2.90;;;;;;;13.55;100.00;100599.13;5060017;28;20047;-73
2022/10/02 10:42:10;;;;;;;4.47;2.83;;;;;;;13.61;100.00;100601.44;5112614;28;20122;-74
2022/10/02 10:44:59;;;;;;;7.50;3.25;;;;;;;13.70;100.00;100599.13;5109504;28;20492;-74
2022/10/02 10:47:51;;;;;;;3.88;2.78;;;;;;;13.82;100.00;100602.91;5106352;28;20047;-73
2022/10/02 10:50:47;;;;;;;2.88;2.50;;;;;;;13.88;100.00;100601.69;5103830;28;20051;-73
2022/10/02 10:53:30;;;;;;;4.15;2.25;;;;;;;13.93;100.00;100611.13;5113030;28;20054;-75
2022/10/02 10:56:12;;;;;;;3.47;2.30;;;;;;;13.93;100.00;100605.81;5112049;28;20048;-74
2022/10/02 10:58:52;;;;;;;3.20;2.20;;;;;;;13.85;100.00;100588.56;5110534;28;20549;-74
2022/10/02 11:01:27;;;;;;;2.53;2.28;;;;;;;13.93;100.00;100618.25;5111098;28;20059;-74
2022/10/02 11:04:03;;;;;;;3.20;2.03;;;;;;;13.75;100.00;100598.00;5110336;28;20071;-76
2022/10/02 11:06:41;;;;;;;4.65;2.30;;;;;;;13.84;100.00;100613.47;5110199;28;20051;-74
2022/10/02 11:09:26;;;;;;;3.88;2.20;;;;;;;13.79;100.00;100618.19;5109355;28;20141;-80
2022/10/02 11:11:54;;;;;;;4.72;2.17;;;;;;;13.80;100.00;100622.56;5110007;28;20051;-74
2022/10/02 11:14:35;;;;;;;2.97;1.70;;;;;;;13.77;100.00;100633.38;5083980;28;20047;-70
2022/10/02 11:17:19;;;;;;;1.90;1.55;;;;;;;13.75;100.00;100627.28;5108542;28;20051;-74
2022/10/02 11:19:55;;;;;;;3.80;1.50;;;;;;;13.67;100.00;100623.25;5110059;28;20086;-73
2022/10/02 11:22:47;;;;;;;2.20;1.42;;;;;;;13.64;100.00;100614.59;5109936;28;20075;-75
2022/10/02 11:25:25;;;;;;;4.68;1.80;;;;;;;13.56;100.00;100616.81;5107578;28;20139;-71
2022/10/02 11:28:22;;;;;;;2.67;1.45;;;;;;;13.60;100.00;100624.53;5109553;28;20126;-72
2022/10/02 11:31:07;;;;;;;2.40;1.30;;;;;;;13.69;100.00;100621.34;5107011;28;20514;-72
2022/10/02 11:33:53;;;;;;;3.47;1.70;;;;;;;13.78;100.00;100624.44;5102992;28;20054;-73
2022/10/02 11:36:45;;;;;;;2.63;1.67;;;;;;;13.75;100.00;100632.59;5104562;28;20079;-73
2022/10/02 11:39:41;;;;;;;3.22;1.48;;;;;;;13.66;100.00;100634.84;5110156;28;20044;-72
2022/10/02 11:42:42;;;;;;;2.85;1.52;;;;;;;13.68;100.00;100642.75;5109391;28;20118;-73
2022/10/02 11:45:11;;;;;;;2.13;1.40;;;;;;;13.65;100.00;100640.25;5110190;28;20542;-69
2022/10/02 11:48:11;;;;;;;3.00;1.70;;;;;;;13.72;100.00;100644.28;5111552;28;20112;-73
2022/10/02 11:50:59;;;;;;;1.60;1.50;;;;;;;13.78;100.00;100640.41;5104443;28;20078;-71
2022/10/02 11:53:46;;;;;;;2.33;1.50;;;;;;;13.82;100.00;100634.00;5103840;28;20047;-72
2022/10/02 11:56:42;;;;;;;2.63;1.83;;;;;;;13.84;100.00;100637.44;5109058;28;20507;-72
2022/10/02 11:59:33;;;;;;;2.58;1.83;;;;;;;13.78;100.00;100643.94;5105530;28;20551;-69
2022/10/02 12:02:03;;;;;;;2.65;1.83;;;;;;;13.84;100.00;100638.28;5109011;28;20142;-72
2022/10/02 12:04:46;;;;;;;3.33;1.95;;;;;;;13.87;100.00;100626.56;5112053;28;20040;-71
2022/10/02 12:07:35;;;;;;;3.10;1.50;;;;;;;13.98;100.00;100626.84;5106337;28;20463;-71
2022/10/02 12:10:10;;;;;;;3.67;1.88;;;;;;;14.06;100.00;100624.59;5112976;28;20097;-73
2022/10/02 12:12:43;;;;;;;1.70;1.55;;;;;;;14.18;100.00;100634.53;5113018;28;20054;-74
2022/10/02 12:15:29;;;;;;;3.10;1.85;;;;;;;14.21;100.00;100634.34;5112800;28;20047;-70
2022/10/02 12:18:39;;;;;;;3.85;2.00;;;;;;;13.95;100.00;100622.56;5111140;28;20048;-72
2022/10/02 12:27:20;;;;;;;2.33;2.03;;;;;;;13.66;100.00;100607.38;5111672;28;20507;-70
2022/10/02 12:30:06;;;;;;;2.53;1.63;;;;;;;13.70;100.00;100608.91;5113334;28;20047;-74
2022/10/02 12:32:57;;;;;;;2.75;1.75;;;;;;;13.77;100.00;100636.91;5112939;28;20044;-72
2022/10/02 12:35:26;;;;;;;2.80;1.92;;;;;;;13.77;100.00;100641.38;5106688;28;20047;-73